sensor_id;sensor_type;location;lat;lon;timestamp;temperature;humidity
37242;DHT22;23135;51.078;12.108;2022-12-24T00:01:00;10.60;99.90
37242;DHT22;23135;51.078;12.108;2022-12-24T00:03:26;10.60;99.90
37242;DHT22;23135;51.078;12.108;2022-12-24T00:05:51;10.60;99.90
37242;DHT22;23135;51.078;12.108;2022-12-24T00:08:17;10.60;99.90
37242;DHT22;23135;51.078;12.108;2022-12-24T00:10:43;10.60;99.90
37242;DHT22;23135;51.078;12.108;2022-12-24T00:13:08;10.60;99.90
37242;DHT22;23135;51.078;12.108;2022-12-24T00:15:34;10.70;99.90
37242;DHT22;23135;51.078;12.108;2022-12-24T00:17:59;10.70;99.90
37242;DHT22;23135;51.078;12.108;2022-12-24T00:20:25;10.70;99.90
37242;DHT22;23135;51.078;12.108;2022-12-24T00:22:50;10.70;99.90
37242;DHT22;23135;51.078;12.108;2022-12-24T00:25:16;10.70;99.90
37242;DHT22;23135;51.078;12.108;2022-12-24T00:27:42;10.80;99.90
37242;DHT22;23135;51.078;12.108;2022-12-24T00:30:07;10.80;99.90
37242;DHT22;23135;51.078;12.108;2022-12-24T00:32:33;10.80;99.90
37242;DHT22;23135;51.078;12.108;2022-12-24T00:34:59;10.80;99.90
37242;DHT22;23135;51.078;12.108;2022-12-24T00:37:24;10.80;99.90
37242;DHT22;23135;51.078;12.108;2022-12-24T00:39:50;10.80;99.90
37242;DHT22;23135;51.078;12.108;2022-12-24T00:42:15;10.80;99.90
37242;DHT22;23135;51.078;12.108;2022-12-24T00:44:41;10.80;99.90
37242;DHT22;23135;51.078;12.108;2022-12-24T00:47:06;10.80;99.90
37242;DHT22;23135;51.078;12.108;2022-12-24T00:49:32;10.80;99.90
37242;DHT22;23135;51.078;12.108;2022-12-24T00:51:57;10.90;99.90
37242;DHT22;23135;51.078;12.108;2022-12-24T00:54:23;10.90;99.90
37242;DHT22;23135;51.078;12.108;2022-12-24T00:56:49;10.80;99.90
37242;DHT22;23135;51.078;12.108;2022-12-24T00:59:14;10.90;99.90
37242;DHT22;23135;51.078;12.108;2022-12-24T01:01:40;11.00;99.90
37242;DHT22;23135;51.078;12.108;2022-12-24T01:04:05;11.00;99.90
37242;DHT22;23135;51.078;12.108;2022-12-24T01:06:49;10.90;99.90
37242;DHT22;23135;51.078;12.108;2022-12-24T01:09:15;10.90;99.90
37242;DHT22;23135;51.078;12.108;2022-12-24T01:11:40;10.90;99.90
37242;DHT22;23135;51.078;12.108;2022-12-24T01:14:06;10.80;99.90
37242;DHT22;23135;51.078;12.108;2022-12-24T01:16:31;10.80;99.90
37242;DHT22;23135;51.078;12.108;2022-12-24T01:18:57;10.80;99.90
37242;DHT22;23135;51.078;12.108;2022-12-24T01:21:23;10.80;99.90
37242;DHT22;23135;51.078;12.108;2022-12-24T01:23:48;10.80;99.90
37242;DHT22;23135;51.078;12.108;2022-12-24T01:26:14;10.80;99.90
37242;DHT22;23135;51.078;12.108;2022-12-24T01:28:40;10.80;99.90
37242;DHT22;23135;51.078;12.108;2022-12-24T01:31:14;10.80;99.90
37242;DHT22;23135;51.078;12.108;2022-12-24T01:33:40;10.80;99.90
37242;DHT22;23135;51.078;12.108;2022-12-24T01:36:06;10.80;99.90
37242;DHT22;23135;51.078;12.108;2022-12-24T01:38:32;10.80;99.90
37242;DHT22;23135;51.078;12.108;2022-12-24T01:40:57;10.90;99.90
37242;DHT22;23135;51.078;12.108;2022-12-24T01:43:41;10.90;99.90
37242;DHT22;23135;51.078;12.108;2022-12-24T01:46:15;11.00;99.90
37242;DHT22;23135;51.078;12.108;2022-12-24T01:48:53;11.00;99.90
37242;DHT22;23135;51.078;12.108;2022-12-24T01:51:36;11.00;99.90
37242;DHT22;23135;51.078;12.108;2022-12-24T01:54:28;11.00;99.90
37242;DHT22;23135;51.078;12.108;2022-12-24T01:57:10;11.00;99.90
37242;DHT22;23135;51.078;12.108;2022-12-24T01:59:38;11.00;99.90
37242;DHT22;23135;51.078;12.108;2022-12-24T02:02:06;11.00;99.90
37242;DHT22;23135;51.078;12.108;2022-12-24T02:04:52;11.00;99.90
37242;DHT22;23135;51.078;12.108;2022-12-24T02:07:19;11.00;99.90
37242;DHT22;23135;51.078;12.108;2022-12-24T02:09:44;11.00;99.90
37242;DHT22;23135;51.078;12.108;2022-12-24T02:12:11;11.00;99.90
37242;DHT22;23135;51.078;12.108;2022-12-24T02:14:37;10.90;99.90
37242;DHT22;23135;51.078;12.108;2022-12-24T02:31:22;10.90;99.90
37242;DHT22;23135;51.078;12.108;2022-12-24T02:34:29;10.90;99.90
37242;DHT22;23135;51.078;12.108;2022-12-24T02:37:16;10.90;99.90
37242;DHT22;23135;51.078;12.108;2022-12-24T02:39:51;10.90;99.90
37242;DHT22;23135;51.078;12.108;2022-12-24T02:42:22;10.90;99.90
37242;DHT22;23135;51.078;12.108;2022-12-24T02:44:54;10.80;99.90
37242;DHT22;23135;51.078;12.108;2022-12-24T02:47:23;10.80;99.90
37242;DHT22;23135;51.078;12.108;2022-12-24T02:49:49;10.80;99.90
37242;DHT22;23135;51.078;12.108;2022-12-24T02:54:52;10.70;99.90
37242;DHT22;23135;51.078;12.108;2022-12-24T02:57:43;10.70;99.90
37242;DHT22;23135;51.078;12.108;2022-12-24T03:00:15;10.80;99.90
37242;DHT22;23135;51.078;12.108;2022-12-24T03:03:19;10.70;99.90
37242;DHT22;23135;51.078;12.108;2022-12-24T03:05:47;10.60;99.90
37242;DHT22;23135;51.078;12.108;2022-12-24T03:13:19;10.60;99.90
37242;DHT22;23135;51.078;12.108;2022-12-24T03:15:46;10.60;99.90
37242;DHT22;23135;51.078;12.108;2022-12-24T03:18:15;10.60;99.90
37242;DHT22;23135;51.078;12.108;2022-12-24T03:20:57;10.60;99.90
37242;DHT22;23135;51.078;12.108;2022-12-24T03:23:24;10.50;99.90
37242;DHT22;23135;51.078;12.108;2022-12-24T03:25:50;10.40;99.90
37242;DHT22;23135;51.078;12.108;2022-12-24T03:28:17;10.40;99.90
37242;DHT22;23135;51.078;12.108;2022-12-24T03:30:45;10.40;99.90
37242;DHT22;23135;51.078;12.108;2022-12-24T03:33:12;10.40;99.90
37242;DHT22;23135;51.078;12.108;2022-12-24T03:35:37;10.40;99.90
37242;DHT22;23135;51.078;12.108;2022-12-24T03:38:03;10.40;99.90
37242;DHT22;23135;51.078;12.108;2022-12-24T03:40:29;10.40;99.90
37242;DHT22;23135;51.078;12.108;2022-12-24T03:42:55;10.40;99.90
37242;DHT22;23135;51.078;12.108;2022-12-24T03:45:20;10.40;99.90
37242;DHT22;23135;51.078;12.108;2022-12-24T03:47:46;10.40;99.90
37242;DHT22;23135;51.078;12.108;2022-12-24T03:50:12;10.40;99.90
37242;DHT22;23135;51.078;12.108;2022-12-24T03:52:37;10.40;99.90
37242;DHT22;23135;51.078;12.108;2022-12-24T03:55:03;10.50;99.90
37242;DHT22;23135;51.078;12.108;2022-12-24T03:57:28;10.60;99.90
37242;DHT22;23135;51.078;12.108;2022-12-24T03:59:54;10.50;99.90
37242;DHT22;23135;51.078;12.108;2022-12-24T04:02:20;10.50;99.90
37242;DHT22;23135;51.078;12.108;2022-12-24T04:04:45;10.50;99.90
37242;DHT22;23135;51.078;12.108;2022-12-24T04:07:11;10.50;99.90
37242;DHT22;23135;51.078;12.108;2022-12-24T04:09:36;10.50;99.90
37242;DHT22;23135;51.078;12.108;2022-12-24T04:12:02;10.50;99.90
37242;DHT22;23135;51.078;12.108;2022-12-24T04:14:28;10.50;99.90
37242;DHT22;23135;51.078;12.108;2022-12-24T04:16:53;10.50;99.90
37242;DHT22;23135;51.078;12.108;2022-12-24T04:19:19;10.50;99.90
37242;DHT22;23135;51.078;12.108;2022-12-24T04:21:44;10.50;99.90
37242;DHT22;23135;51.078;12.108;2022-12-24T04:24:11;10.60;99.90
37242;DHT22;23135;51.078;12.108;2022-12-24T04:26:37;10.50;99.90
37242;DHT22;23135;51.078;12.108;2022-12-24T04:29:02;10.50;99.90
37242;DHT22;23135;51.078;12.108;2022-12-24T04:31:28;10.50;99.90
37242;DHT22;23135;51.078;12.108;2022-12-24T04:33:53;10.40;99.90
37242;DHT22;23135;51.078;12.108;2022-12-24T04:36:19;10.40;99.90
37242;DHT22;23135;51.078;12.108;2022-12-24T04:38:46;10.50;99.90
37242;DHT22;23135;51.078;12.108;2022-12-24T04:41:17;10.50;99.90
37242;DHT22;23135;51.078;12.108;2022-12-24T04:43:43;10.50;99.90
37242;DHT22;23135;51.078;12.108;2022-12-24T04:46:16;10.40;99.90
37242;DHT22;23135;51.078;12.108;2022-12-24T04:48:46;10.40;99.90
37242;DHT22;23135;51.078;12.108;2022-12-24T04:51:12;10.30;99.90
37242;DHT22;23135;51.078;12.108;2022-12-24T04:53:38;10.30;99.90
37242;DHT22;23135;51.078;12.108;2022-12-24T04:56:08;10.30;99.90
37242;DHT22;23135;51.078;12.108;2022-12-24T04:58:35;10.20;99.90
37242;DHT22;23135;51.078;12.108;2022-12-24T05:01:11;10.10;99.90
37242;DHT22;23135;51.078;12.108;2022-12-24T05:03:37;10.10;99.90
37242;DHT22;23135;51.078;12.108;2022-12-24T05:06:05;10.10;99.90
37242;DHT22;23135;51.078;12.108;2022-12-24T05:08:31;10.00;99.90
37242;DHT22;23135;51.078;12.108;2022-12-24T05:10:58;9.90;99.90
37242;DHT22;23135;51.078;12.108;2022-12-24T05:13:25;9.80;99.90
37242;DHT22;23135;51.078;12.108;2022-12-24T05:15:51;9.80;99.90
37242;DHT22;23135;51.078;12.108;2022-12-24T05:18:16;9.80;99.90
37242;DHT22;23135;51.078;12.108;2022-12-24T05:20:42;9.80;99.90
37242;DHT22;23135;51.078;12.108;2022-12-24T05:23:19;9.70;99.90
37242;DHT22;23135;51.078;12.108;2022-12-24T05:26:13;9.60;99.90
37242;DHT22;23135;51.078;12.108;2022-12-24T05:28:49;9.60;99.90
37242;DHT22;23135;51.078;12.108;2022-12-24T05:31:15;9.70;99.90
37242;DHT22;23135;51.078;12.108;2022-12-24T05:33:40;9.60;99.90
37242;DHT22;23135;51.078;12.108;2022-12-24T05:36:06;9.50;99.90
37242;DHT22;23135;51.078;12.108;2022-12-24T05:38:32;9.50;99.90
37242;DHT22;23135;51.078;12.108;2022-12-24T05:40:58;9.40;99.90
37242;DHT22;23135;51.078;12.108;2022-12-24T05:43:23;9.40;99.90
37242;DHT22;23135;51.078;12.108;2022-12-24T05:45:49;9.40;99.90
37242;DHT22;23135;51.078;12.108;2022-12-24T05:48:15;9.40;99.90
37242;DHT22;23135;51.078;12.108;2022-12-24T05:50:40;9.30;99.90
37242;DHT22;23135;51.078;12.108;2022-12-24T05:53:06;9.40;99.90
37242;DHT22;23135;51.078;12.108;2022-12-24T05:55:33;9.40;99.90
37242;DHT22;23135;51.078;12.108;2022-12-24T05:57:59;9.40;99.90
37242;DHT22;23135;51.078;12.108;2022-12-24T06:00:25;9.40;99.90
37242;DHT22;23135;51.078;12.108;2022-12-24T06:02:50;9.40;99.90
37242;DHT22;23135;51.078;12.108;2022-12-24T06:05:16;9.30;99.90
37242;DHT22;23135;51.078;12.108;2022-12-24T06:07:42;9.40;99.90
37242;DHT22;23135;51.078;12.108;2022-12-24T06:10:08;9.40;99.90
37242;DHT22;23135;51.078;12.108;2022-12-24T06:12:35;9.40;99.90
37242;DHT22;23135;51.078;12.108;2022-12-24T06:15:00;9.40;99.90
37242;DHT22;23135;51.078;12.108;2022-12-24T06:17:26;9.40;99.90
37242;DHT22;23135;51.078;12.108;2022-12-24T06:19:51;9.40;99.90
37242;DHT22;23135;51.078;12.108;2022-12-24T06:22:17;9.40;99.90
37242;DHT22;23135;51.078;12.108;2022-12-24T06:24:42;9.50;99.90
37242;DHT22;23135;51.078;12.108;2022-12-24T06:27:08;9.60;99.90
37242;DHT22;23135;51.078;12.108;2022-12-24T06:29:33;9.70;99.90
37242;DHT22;23135;51.078;12.108;2022-12-24T06:31:59;9.60;99.90
37242;DHT22;23135;51.078;12.108;2022-12-24T06:34:25;9.60;99.90
37242;DHT22;23135;51.078;12.108;2022-12-24T06:36:50;9.60;99.90
37242;DHT22;23135;51.078;12.108;2022-12-24T06:39:16;9.50;99.90
37242;DHT22;23135;51.078;12.108;2022-12-24T06:41:41;9.40;99.90
37242;DHT22;23135;51.078;12.108;2022-12-24T06:44:07;9.40;99.90
37242;DHT22;23135;51.078;12.108;2022-12-24T06:46:33;9.40;99.90
37242;DHT22;23135;51.078;12.108;2022-12-24T06:48:58;9.20;99.90
37242;DHT22;23135;51.078;12.108;2022-12-24T06:51:24;9.20;99.90
37242;DHT22;23135;51.078;12.108;2022-12-24T06:53:50;9.00;99.90
37242;DHT22;23135;51.078;12.108;2022-12-24T06:56:16;9.00;99.90
37242;DHT22;23135;51.078;12.108;2022-12-24T06:58:41;8.90;99.90
37242;DHT22;23135;51.078;12.108;2022-12-24T07:01:10;8.90;99.90
37242;DHT22;23135;51.078;12.108;2022-12-24T07:03:36;8.90;99.90
37242;DHT22;23135;51.078;12.108;2022-12-24T07:06:01;8.80;99.90
37242;DHT22;23135;51.078;12.108;2022-12-24T07:08:27;8.80;99.90
37242;DHT22;23135;51.078;12.108;2022-12-24T07:10:53;8.90;99.90
37242;DHT22;23135;51.078;12.108;2022-12-24T07:13:18;8.90;99.90
37242;DHT22;23135;51.078;12.108;2022-12-24T07:15:44;8.90;99.90
37242;DHT22;23135;51.078;12.108;2022-12-24T07:18:10;8.90;99.90
37242;DHT22;23135;51.078;12.108;2022-12-24T07:20:36;8.90;99.90
37242;DHT22;23135;51.078;12.108;2022-12-24T07:23:02;8.90;99.90
37242;DHT22;23135;51.078;12.108;2022-12-24T07:25:28;8.90;99.90
37242;DHT22;23135;51.078;12.108;2022-12-24T07:27:53;8.80;99.90
37242;DHT22;23135;51.078;12.108;2022-12-24T07:30:19;8.90;99.90
37242;DHT22;23135;51.078;12.108;2022-12-24T07:32:44;8.90;99.90
37242;DHT22;23135;51.078;12.108;2022-12-24T07:35:10;8.90;99.90
37242;DHT22;23135;51.078;12.108;2022-12-24T07:37:36;8.90;99.90
37242;DHT22;23135;51.078;12.108;2022-12-24T07:40:02;8.90;99.90
37242;DHT22;23135;51.078;12.108;2022-12-24T07:42:30;8.90;99.90
37242;DHT22;23135;51.078;12.108;2022-12-24T07:44:56;8.90;99.90
37242;DHT22;23135;51.078;12.108;2022-12-24T07:47:21;8.80;99.90
37242;DHT22;23135;51.078;12.108;2022-12-24T07:49:47;8.80;99.90
37242;DHT22;23135;51.078;12.108;2022-12-24T07:52:12;8.80;99.90
37242;DHT22;23135;51.078;12.108;2022-12-24T07:54:38;8.80;99.90
37242;DHT22;23135;51.078;12.108;2022-12-24T07:57:04;8.80;99.90
37242;DHT22;23135;51.078;12.108;2022-12-24T07:59:29;8.80;99.90
37242;DHT22;23135;51.078;12.108;2022-12-24T08:01:55;8.90;99.90
37242;DHT22;23135;51.078;12.108;2022-12-24T08:04:20;8.90;99.90
37242;DHT22;23135;51.078;12.108;2022-12-24T08:06:46;8.90;99.90
37242;DHT22;23135;51.078;12.108;2022-12-24T08:09:11;8.90;99.90
37242;DHT22;23135;51.078;12.108;2022-12-24T08:11:38;9.00;99.90
37242;DHT22;23135;51.078;12.108;2022-12-24T08:14:04;9.00;99.90
37242;DHT22;23135;51.078;12.108;2022-12-24T08:16:29;8.90;99.90
37242;DHT22;23135;51.078;12.108;2022-12-24T08:18:55;8.90;99.90
37242;DHT22;23135;51.078;12.108;2022-12-24T08:21:20;9.00;99.90
37242;DHT22;23135;51.078;12.108;2022-12-24T08:23:46;9.00;99.90
37242;DHT22;23135;51.078;12.108;2022-12-24T08:26:12;9.00;99.90
37242;DHT22;23135;51.078;12.108;2022-12-24T08:28:37;9.00;99.90
37242;DHT22;23135;51.078;12.108;2022-12-24T08:31:04;9.00;99.90
37242;DHT22;23135;51.078;12.108;2022-12-24T08:33:29;9.10;99.90
37242;DHT22;23135;51.078;12.108;2022-12-24T08:35:56;9.10;99.90
37242;DHT22;23135;51.078;12.108;2022-12-24T08:38:22;9.10;99.90
37242;DHT22;23135;51.078;12.108;2022-12-24T08:40:48;9.10;99.90
37242;DHT22;23135;51.078;12.108;2022-12-24T08:43:17;9.20;99.90
37242;DHT22;23135;51.078;12.108;2022-12-24T08:45:43;9.20;99.90
37242;DHT22;23135;51.078;12.108;2022-12-24T08:48:09;9.20;99.90
37242;DHT22;23135;51.078;12.108;2022-12-24T08:50:38;9.20;99.90
37242;DHT22;23135;51.078;12.108;2022-12-24T08:53:05;9.30;99.90
37242;DHT22;23135;51.078;12.108;2022-12-24T08:55:31;9.30;99.90
37242;DHT22;23135;51.078;12.108;2022-12-24T08:57:56;9.30;99.90
37242;DHT22;23135;51.078;12.108;2022-12-24T09:00:22;9.40;99.90
37242;DHT22;23135;51.078;12.108;2022-12-24T09:02:48;9.30;99.90
37242;DHT22;23135;51.078;12.108;2022-12-24T09:05:13;9.30;99.90
37242;DHT22;23135;51.078;12.108;2022-12-24T09:07:39;9.40;99.90
37242;DHT22;23135;51.078;12.108;2022-12-24T09:10:05;9.50;99.90
37242;DHT22;23135;51.078;12.108;2022-12-24T09:12:31;9.70;99.90
37242;DHT22;23135;51.078;12.108;2022-12-24T09:14:57;9.80;99.90
37242;DHT22;23135;51.078;12.108;2022-12-24T09:17:22;9.80;99.90
37242;DHT22;23135;51.078;12.108;2022-12-24T09:19:48;9.70;99.90
37242;DHT22;23135;51.078;12.108;2022-12-24T09:22:14;9.70;99.90
37242;DHT22;23135;51.078;12.108;2022-12-24T09:24:39;9.70;99.90
37242;DHT22;23135;51.078;12.108;2022-12-24T09:27:05;9.90;99.90
37242;DHT22;23135;51.078;12.108;2022-12-24T09:29:31;9.90;99.90
37242;DHT22;23135;51.078;12.108;2022-12-24T09:31:57;10.00;99.90
37242;DHT22;23135;51.078;12.108;2022-12-24T09:34:23;9.90;99.90
37242;DHT22;23135;51.078;12.108;2022-12-24T09:36:49;9.90;99.90
37242;DHT22;23135;51.078;12.108;2022-12-24T09:39:16;10.00;99.90
37242;DHT22;23135;51.078;12.108;2022-12-24T09:41:59;10.10;99.90
37242;DHT22;23135;51.078;12.108;2022-12-24T09:47:20;10.20;99.90
37242;DHT22;23135;51.078;12.108;2022-12-24T09:49:49;10.30;99.90
37242;DHT22;23135;51.078;12.108;2022-12-24T09:52:26;10.20;99.90
37242;DHT22;23135;51.078;12.108;2022-12-24T09:55:00;10.20;99.90
37242;DHT22;23135;51.078;12.108;2022-12-24T09:57:33;10.10;99.90
37242;DHT22;23135;51.078;12.108;2022-12-24T09:59:59;10.10;99.90
37242;DHT22;23135;51.078;12.108;2022-12-24T10:02:25;10.10;99.90
37242;DHT22;23135;51.078;12.108;2022-12-24T10:04:51;10.10;99.90
37242;DHT22;23135;51.078;12.108;2022-12-24T10:10:20;10.20;99.90
37242;DHT22;23135;51.078;12.108;2022-12-24T10:13:11;10.20;99.90
37242;DHT22;23135;51.078;12.108;2022-12-24T10:15:39;10.20;99.90
37242;DHT22;23135;51.078;12.108;2022-12-24T10:20:58;10.20;99.90
37242;DHT22;23135;51.078;12.108;2022-12-24T10:23:48;10.20;99.90
37242;DHT22;23135;51.078;12.108;2022-12-24T10:26:25;10.10;99.90
37242;DHT22;23135;51.078;12.108;2022-12-24T10:28:57;10.00;99.90
37242;DHT22;23135;51.078;12.108;2022-12-24T10:34:35;10.20;99.90
37242;DHT22;23135;51.078;12.108;2022-12-24T10:37:02;10.20;99.90
37242;DHT22;23135;51.078;12.108;2022-12-24T10:39:28;10.30;99.90
37242;DHT22;23135;51.078;12.108;2022-12-24T10:41:56;10.50;99.90
37242;DHT22;23135;51.078;12.108;2022-12-24T10:44:27;10.70;99.90
37242;DHT22;23135;51.078;12.108;2022-12-24T10:46:53;11.00;99.90
37242;DHT22;23135;51.078;12.108;2022-12-24T10:49:29;11.00;99.90
37242;DHT22;23135;51.078;12.108;2022-12-24T10:52:01;10.90;99.90
37242;DHT22;23135;51.078;12.108;2022-12-24T10:54:28;10.70;99.90
37242;DHT22;23135;51.078;12.108;2022-12-24T10:57:00;10.60;99.90
37242;DHT22;23135;51.078;12.108;2022-12-24T11:04:49;10.50;99.90
37242;DHT22;23135;51.078;12.108;2022-12-24T11:07:19;10.50;99.90
37242;DHT22;23135;51.078;12.108;2022-12-24T11:10:04;10.40;99.90
37242;DHT22;23135;51.078;12.108;2022-12-24T11:12:32;10.50;99.90
37242;DHT22;23135;51.078;12.108;2022-12-24T11:15:45;10.50;99.90
37242;DHT22;23135;51.078;12.108;2022-12-24T11:18:02;10.50;99.90
37242;DHT22;23135;51.078;12.108;2022-12-24T11:20:31;10.90;99.90
37242;DHT22;23135;51.078;12.108;2022-12-24T11:22:58;11.20;99.90
37242;DHT22;23135;51.078;12.108;2022-12-24T11:25:29;11.30;99.90
37242;DHT22;23135;51.078;12.108;2022-12-24T11:28:17;11.50;99.90
37242;DHT22;23135;51.078;12.108;2022-12-24T11:33:20;11.60;99.90
37242;DHT22;23135;51.078;12.108;2022-12-24T11:35:49;11.70;99.90
37242;DHT22;23135;51.078;12.108;2022-12-24T11:38:23;11.50;99.90
37242;DHT22;23135;51.078;12.108;2022-12-24T11:41:00;11.50;99.90
37242;DHT22;23135;51.078;12.108;2022-12-24T11:43:32;11.50;99.90
37242;DHT22;23135;51.078;12.108;2022-12-24T11:46:20;11.40;99.90
37242;DHT22;23135;51.078;12.108;2022-12-24T11:48:46;11.20;99.90
37242;DHT22;23135;51.078;12.108;2022-12-24T11:51:26;11.00;99.90
37242;DHT22;23135;51.078;12.108;2022-12-24T11:53:59;11.00;99.90
37242;DHT22;23135;51.078;12.108;2022-12-24T11:59:01;11.00;99.90
37242;DHT22;23135;51.078;12.108;2022-12-24T12:01:55;10.90;99.90
37242;DHT22;23135;51.078;12.108;2022-12-24T12:04:34;10.80;99.90
37242;DHT22;23135;51.078;12.108;2022-12-24T12:07:05;10.80;99.90
37242;DHT22;23135;51.078;12.108;2022-12-24T12:09:38;10.70;99.90
37242;DHT22;23135;51.078;12.108;2022-12-24T12:12:16;10.70;99.90
37242;DHT22;23135;51.078;12.108;2022-12-24T12:20:20;11.50;99.90
37242;DHT22;23135;51.078;12.108;2022-12-24T12:22:52;11.70;99.90
37242;DHT22;23135;51.078;12.108;2022-12-24T12:25:26;11.80;99.90
37242;DHT22;23135;51.078;12.108;2022-12-24T12:27:54;12.00;99.90
37242;DHT22;23135;51.078;12.108;2022-12-24T12:30:22;12.20;99.90
37242;DHT22;23135;51.078;12.108;2022-12-24T12:35:40;12.10;99.90
37242;DHT22;23135;51.078;12.108;2022-12-24T12:38:21;12.40;99.90
37242;DHT22;23135;51.078;12.108;2022-12-24T12:52:01;12.60;99.90
37242;DHT22;23135;51.078;12.108;2022-12-24T12:57:03;12.00;99.90
37242;DHT22;23135;51.078;12.108;2022-12-24T12:59:35;11.90;99.90
37242;DHT22;23135;51.078;12.108;2022-12-24T13:14:27;11.70;99.90
37242;DHT22;23135;51.078;12.108;2022-12-24T13:17:09;11.60;99.90
37242;DHT22;23135;51.078;12.108;2022-12-24T13:22:12;11.40;99.90
37242;DHT22;23135;51.078;12.108;2022-12-24T13:24:38;11.30;99.90
37242;DHT22;23135;51.078;12.108;2022-12-24T13:27:16;11.30;99.90
37242;DHT22;23135;51.078;12.108;2022-12-24T13:30:46;11.20;99.90
37242;DHT22;23135;51.078;12.108;2022-12-24T13:32:53;11.10;99.90
37242;DHT22;23135;51.078;12.108;2022-12-24T13:37:46;10.90;99.90
37242;DHT22;23135;51.078;12.108;2022-12-24T13:40:24;10.90;99.90
37242;DHT22;23135;51.078;12.108;2022-12-24T13:50:43;10.80;99.90
37242;DHT22;23135;51.078;12.108;2022-12-24T13:55:56;10.70;99.90
37242;DHT22;23135;51.078;12.108;2022-12-24T13:58:23;10.70;99.90
37242;DHT22;23135;51.078;12.108;2022-12-24T14:01:04;10.70;99.90
37242;DHT22;23135;51.078;12.108;2022-12-24T14:03:34;10.70;99.90
37242;DHT22;23135;51.078;12.108;2022-12-24T14:06:10;10.60;99.90
37242;DHT22;23135;51.078;12.108;2022-12-24T14:08:42;10.60;99.90
37242;DHT22;23135;51.078;12.108;2022-12-24T14:11:15;10.60;99.90
37242;DHT22;23135;51.078;12.108;2022-12-24T14:16:28;10.60;99.90
37242;DHT22;23135;51.078;12.108;2022-12-24T14:21:28;10.60;99.90
37242;DHT22;23135;51.078;12.108;2022-12-24T14:23:57;10.60;99.90
37242;DHT22;23135;51.078;12.108;2022-12-24T14:26:27;10.60;99.90
37242;DHT22;23135;51.078;12.108;2022-12-24T14:28:57;10.60;99.90
37242;DHT22;23135;51.078;12.108;2022-12-24T14:31:24;10.50;99.90
37242;DHT22;23135;51.078;12.108;2022-12-24T14:33:50;10.50;99.90
37242;DHT22;23135;51.078;12.108;2022-12-24T14:36:20;10.40;99.90
37242;DHT22;23135;51.078;12.108;2022-12-24T14:38:47;10.40;99.90
37242;DHT22;23135;51.078;12.108;2022-12-24T14:41:44;10.40;99.90
37242;DHT22;23135;51.078;12.108;2022-12-24T14:44:24;10.30;99.90
37242;DHT22;23135;51.078;12.108;2022-12-24T14:46:56;10.20;99.90
37242;DHT22;23135;51.078;12.108;2022-12-24T14:49:36;10.10;99.90
37242;DHT22;23135;51.078;12.108;2022-12-24T14:54:41;9.90;99.90
37242;DHT22;23135;51.078;12.108;2022-12-24T15:02:45;9.60;99.90
37242;DHT22;23135;51.078;12.108;2022-12-24T15:08:03;9.60;99.90
37242;DHT22;23135;51.078;12.108;2022-12-24T15:10:38;9.60;99.90
37242;DHT22;23135;51.078;12.108;2022-12-24T15:13:11;9.50;99.90
37242;DHT22;23135;51.078;12.108;2022-12-24T15:15:42;9.50;99.90
37242;DHT22;23135;51.078;12.108;2022-12-24T15:18:14;9.30;99.90
37242;DHT22;23135;51.078;12.108;2022-12-24T15:20:42;9.30;99.90
37242;DHT22;23135;51.078;12.108;2022-12-24T15:23:21;9.30;99.90
37242;DHT22;23135;51.078;12.108;2022-12-24T15:25:46;9.40;99.90
37242;DHT22;23135;51.078;12.108;2022-12-24T15:28:18;9.40;99.90
37242;DHT22;23135;51.078;12.108;2022-12-24T15:30:44;9.40;99.90
37242;DHT22;23135;51.078;12.108;2022-12-24T15:33:10;9.50;99.90
37242;DHT22;23135;51.078;12.108;2022-12-24T15:35:45;9.40;99.90
37242;DHT22;23135;51.078;12.108;2022-12-24T15:38:30;9.50;99.90
37242;DHT22;23135;51.078;12.108;2022-12-24T15:40:57;9.40;99.90
37242;DHT22;23135;51.078;12.108;2022-12-24T15:43:23;9.50;99.90
37242;DHT22;23135;51.078;12.108;2022-12-24T15:45:49;9.40;99.90
37242;DHT22;23135;51.078;12.108;2022-12-24T15:48:28;9.40;99.90
37242;DHT22;23135;51.078;12.108;2022-12-24T15:51:00;9.60;99.90
37242;DHT22;23135;51.078;12.108;2022-12-24T15:53:36;9.60;99.90
37242;DHT22;23135;51.078;12.108;2022-12-24T15:56:10;9.60;99.90
37242;DHT22;23135;51.078;12.108;2022-12-24T15:58:40;9.60;99.90
37242;DHT22;23135;51.078;12.108;2022-12-24T16:03:39;9.50;99.90
37242;DHT22;23135;51.078;12.108;2022-12-24T16:06:07;9.40;99.90
37242;DHT22;23135;51.078;12.108;2022-12-24T16:08:37;9.40;99.90
37242;DHT22;23135;51.078;12.108;2022-12-24T16:11:11;9.40;99.90
37242;DHT22;23135;51.078;12.108;2022-12-24T16:13:43;9.40;99.90
37242;DHT22;23135;51.078;12.108;2022-12-24T16:16:28;9.40;99.90
37242;DHT22;23135;51.078;12.108;2022-12-24T16:18:57;9.30;99.90
37242;DHT22;23135;51.078;12.108;2022-12-24T16:21:26;9.20;99.90
37242;DHT22;23135;51.078;12.108;2022-12-24T16:24:01;9.10;99.90
37242;DHT22;23135;51.078;12.108;2022-12-24T16:26:31;9.00;99.90
37242;DHT22;23135;51.078;12.108;2022-12-24T16:28:56;9.00;99.90
37242;DHT22;23135;51.078;12.108;2022-12-24T16:31:49;8.90;99.90
37242;DHT22;23135;51.078;12.108;2022-12-24T16:34:15;8.70;99.90
37242;DHT22;23135;51.078;12.108;2022-12-24T16:36:42;8.60;99.90
37242;DHT22;23135;51.078;12.108;2022-12-24T16:39:18;8.50;99.90
37242;DHT22;23135;51.078;12.108;2022-12-24T16:41:48;8.40;99.90
37242;DHT22;23135;51.078;12.108;2022-12-24T16:44:32;8.20;99.90
37242;DHT22;23135;51.078;12.108;2022-12-24T16:46:58;8.10;99.90
37242;DHT22;23135;51.078;12.108;2022-12-24T16:49:24;8.10;99.90
37242;DHT22;23135;51.078;12.108;2022-12-24T16:51:50;8.00;99.90
37242;DHT22;23135;51.078;12.108;2022-12-24T16:54:16;8.00;99.90
37242;DHT22;23135;51.078;12.108;2022-12-24T16:56:43;7.90;99.90
37242;DHT22;23135;51.078;12.108;2022-12-24T16:59:20;7.90;99.90
37242;DHT22;23135;51.078;12.108;2022-12-24T17:01:47;7.80;99.90
37242;DHT22;23135;51.078;12.108;2022-12-24T17:04:16;7.80;99.90
37242;DHT22;23135;51.078;12.108;2022-12-24T17:06:43;7.80;99.90
37242;DHT22;23135;51.078;12.108;2022-12-24T17:09:10;7.80;99.90
37242;DHT22;23135;51.078;12.108;2022-12-24T17:11:36;7.70;99.90
37242;DHT22;23135;51.078;12.108;2022-12-24T17:14:02;7.70;99.90
37242;DHT22;23135;51.078;12.108;2022-12-24T17:16:28;7.60;99.90
37242;DHT22;23135;51.078;12.108;2022-12-24T17:18:54;7.60;99.90
37242;DHT22;23135;51.078;12.108;2022-12-24T17:21:19;7.70;99.90
37242;DHT22;23135;51.078;12.108;2022-12-24T17:23:45;7.80;99.90
37242;DHT22;23135;51.078;12.108;2022-12-24T17:26:11;7.70;99.90
37242;DHT22;23135;51.078;12.108;2022-12-24T17:28:37;7.70;99.90